Time;durP1;ratioP1;P1;durP2;ratioP2;P2;SDS_P1;SDS_P2;PMS_P1;PMS_P2;Temp;Humidity;BMP_temperature;BMP_pressure;BME280_temperature;BME280_humidity;BME280_pressure;Samples;Min_cycle;Max_cycle;Signal;HPM_P1;HPM_P2
2023/11/20 00:04:26;;;;;;;14.70;6.40;;;;;;;5.66;100.00;98450.63;436294;1253;140036;-68
2023/11/20 00:14:33;;;;;;;16.10;7.90;;;;;;;5.63;100.00;98451.80;436060;1255;139319;-68
2023/11/20 00:24:39;;;;;;;17.00;5.20;;;;;;;5.67;100.00;98460.27;435970;1254;140362;-68
2023/11/20 00:34:46;;;;;;;13.20;5.60;;;;;;;5.72;100.00;98459.07;435877;1253;139324;-68
2023/11/20 00:44:52;;;;;;;21.30;7.20;;;;;;;5.77;100.00;98461.16;435891;1251;140013;-69
2023/11/20 00:54:59;;;;;;;11.90;6.30;;;;;;;5.83;100.00;98463.80;436051;1253;139082;-69
2023/11/20 01:05:07;;;;;;;12.00;6.50;;;;;;;5.93;100.00;98467.86;435926;1254;139370;-68
2023/11/20 01:15:14;;;;;;;9.10;5.50;;;;;;;6.02;100.00;98470.94;435983;1256;140968;-68
2023/11/20 01:25:20;;;;;;;14.80;8.60;;;;;;;6.11;100.00;98471.47;435577;1253;139819;-68
2023/11/20 01:35:27;;;;;;;14.70;6.00;;;;;;;6.15;100.00;98466.63;435586;1252;139126;-69
2023/11/20 01:45:33;;;;;;;9.30;5.30;;;;;;;6.21;100.00;98470.36;436176;1253;139414;-68
2023/11/20 01:55:40;;;;;;;19.00;6.80;;;;;;;6.26;100.00;98473.11;436085;1253;139264;-68
2023/11/20 02:05:47;;;;;;;10.60;5.20;;;;;;;6.30;100.00;98466.60;436398;1253;139094;-69
2023/11/20 02:15:54;;;;;;;11.10;7.00;;;;;;;6.33;100.00;98462.73;435865;1255;139093;-68
2023/11/20 02:26:17;;;;;;;15.60;6.50;;;;;;;6.38;100.00;98461.73;436137;1253;139805;-69
2023/11/20 02:36:27;;;;;;;10.70;6.30;;;;;;;6.41;100.00;98456.17;435365;1254;139035;-70
2023/11/20 02:46:34;;;;;;;12.20;6.00;;;;;;;6.42;100.00;98451.90;435950;1254;139195;-67
2023/11/20 02:56:41;;;;;;;12.60;6.10;;;;;;;6.46;100.00;98451.85;436013;1254;138966;-68
2023/11/20 03:06:46;;;;;;;;;;;;;;;6.50;100.00;98457.36;435322;1254;139900;-68
2023/11/20 03:16:52;;;;;;;13.90;7.10;;;;;;;6.51;100.00;98459.00;436190;1251;125342;-69
2023/11/20 03:27:00;;;;;;;16.10;6.40;;;;;;;6.52;100.00;98454.59;435908;1253;139077;-68
2023/11/20 03:37:06;;;;;;;17.20;7.10;;;;;;;6.53;100.00;98455.05;435881;1254;139469;-69
2023/11/20 03:47:13;;;;;;;13.90;6.30;;;;;;;6.53;100.00;98442.38;436040;1253;139367;-68
2023/11/20 03:57:19;;;;;;;13.20;5.90;;;;;;;6.53;100.00;98443.02;435545;1253;138950;-68
2023/11/20 04:07:25;;;;;;;9.30;5.30;;;;;;;6.54;100.00;98435.52;435327;1251;139364;-68
2023/11/20 04:17:33;;;;;;;13.20;6.50;;;;;;;6.52;100.00;98436.15;435508;1251;139225;-68
2023/11/20 04:27:39;;;;;;;14.70;6.20;;;;;;;6.48;100.00;98431.20;437845;1251;139811;-69
2023/11/20 04:37:46;;;;;;;17.40;8.90;;;;;;;6.44;100.00;98425.73;435213;1254;139480;-69
2023/11/20 04:47:52;;;;;;;12.00;6.80;;;;;;;6.42;100.00;98428.10;435512;1254;139369;-69
2023/11/20 04:57:58;;;;;;;17.10;8.50;;;;;;;6.41;100.00;98426.94;436626;1251;140528;-68
2023/11/20 05:08:06;;;;;;;10.20;6.80;;;;;;;6.42;100.00;98430.40;436536;1251;138875;-69
2023/11/20 05:18:12;;;;;;;13.00;7.00;;;;;;;6.41;100.00;98436.89;435988;1251;139038;-68
2023/11/20 05:28:18;;;;;;;13.70;9.00;;;;;;;6.37;100.00;98441.94;435458;1251;139512;-68
2023/11/20 05:38:24;;;;;;;16.60;7.20;;;;;;;6.34;100.00;98441.51;435677;1253;139946;-68
2023/11/20 05:48:31;;;;;;;16.20;8.00;;;;;;;6.30;100.00;98444.34;435594;1253;140166;-69
2023/11/20 05:58:37;;;;;;;16.30;7.90;;;;;;;6.29;100.00;98447.39;435619;1251;138971;-68
2023/11/20 06:08:43;;;;;;;13.30;8.80;;;;;;;6.29;100.00;98447.56;436068;1251;140177;-69
2023/11/20 06:18:50;;;;;;;23.40;11.60;;;;;;;6.29;100.00;98449.30;438038;1250;139537;-69
2023/11/20 06:28:56;;;;;;;26.30;9.20;;;;;;;6.29;100.00;98456.20;437984;1251;140487;-69
2023/11/20 06:39:05;;;;;;;15.50;9.20;;;;;;;6.30;100.00;98468.98;435503;1251;139743;-68
2023/11/20 06:49:12;;;;;;;20.00;10.00;;;;;;;6.31;100.00;98479.88;435744;1251;140610;-68
2023/11/20 06:59:18;;;;;;;16.40;9.20;;;;;;;6.34;100.00;98486.86;435925;1251;139561;-67
2023/11/20 07:09:29;;;;;;;14.50;10.30;;;;;;;6.39;100.00;98498.36;437886;1251;139070;-68
2023/11/20 07:19:36;;;;;;;20.60;10.00;;;;;;;6.42;100.00;98493.85;437445;1250;139167;-68
2023/11/20 07:29:43;;;;;;;16.50;11.10;;;;;;;6.48;100.00;98490.16;435988;1254;139545;-69
2023/11/20 07:39:49;;;;;;;14.90;10.10;;;;;;;6.59;100.00;98495.15;436403;1254;140186;-68
2023/11/20 07:49:56;;;;;;;13.80;10.30;;;;;;;6.62;100.00;98496.92;435869;1251;139530;-65
2023/11/20 08:00:04;;;;;;;17.90;12.00;;;;;;;6.63;100.00;98498.91;436102;1253;140262;-67
2023/11/20 08:10:11;;;;;;;16.60;11.10;;;;;;;6.65;100.00;98504.17;436057;1250;139463;-65
2023/11/20 08:20:18;;;;;;;;;;;;;;;6.70;100.00;98508.73;436414;1250;139235;-74
2023/11/20 08:30:25;;;;;;;16.30;10.70;;;;;;;6.77;100.00;98505.54;439355;1253;125141;-67
2023/11/20 08:40:31;;;;;;;19.50;11.50;;;;;;;6.90;100.00;98507.06;436276;1251;139220;-71
2023/11/20 08:50:37;;;;;;;20.00;11.50;;;;;;;7.15;100.00;98507.13;436715;1249;140857;-68
2023/11/20 09:00:44;;;;;;;16.20;12.10;;;;;;;7.61;100.00;98501.11;435887;1250;140126;-69
2023/11/20 09:10:50;;;;;;;16.80;10.80;;;;;;;7.97;100.00;98502.80;435488;1250;139291;-63
2023/11/20 09:21:01;;;;;;;15.50;10.00;;;;;;;8.02;100.00;98508.18;435830;1253;139146;-64
2023/11/20 09:31:08;;;;;;;13.20;9.10;;;;;;;8.05;100.00;98505.36;436463;1251;140009;-73
2023/11/20 09:41:15;;;;;;;15.00;7.30;;;;;;;8.05;100.00;98502.43;436687;1251;138990;-67
2023/11/20 09:51:25;;;;;;;14.50;11.60;;;;;;;8.06;100.00;98496.73;435505;1254;139613;-70
2023/11/20 10:01:33;;;;;;;9.70;7.30;;;;;;;8.17;100.00;98485.92;436183;1251;139505;-76
2023/11/20 10:11:43;;;;;;;9.50;7.70;;;;;;;8.20;100.00;98476.99;437001;1251;138833;-65
2023/11/20 10:21:51;;;;;;;15.80;10.00;;;;;;;8.23;100.00;98467.54;435610;1254;138903;-67
2023/11/20 10:32:02;;;;;;;12.60;8.80;;;;;;;8.38;100.00;98458.57;435881;1254;139492;-62
2023/11/20 10:42:11;;;;;;;18.30;11.90;;;;;;;8.51;100.00;98452.28;435531;1250;139679;-69
2023/11/20 10:52:25;;;;;;;12.40;9.20;;;;;;;8.75;100.00;98449.27;436284;1250;139710;-68
2023/11/20 11:02:33;;;;;;;15.20;12.40;;;;;;;9.05;100.00;98445.45;436762;1253;139133;-74
2023/11/20 11:12:42;;;;;;;16.80;12.60;;;;;;;8.94;100.00;98445.06;440022;1250;139302;-73
2023/11/20 11:22:55;;;;;;;19.80;11.30;;;;;;;8.72;100.00;98431.37;436470;1250;139898;-73
2023/11/20 11:33:18;;;;;;;15.50;11.40;;;;;;;8.80;100.00;98423.26;438942;1251;139942;-68
2023/11/20 11:43:31;;;;;;;14.70;10.30;;;;;;;9.08;100.00;98421.36;436624;1254;140880;-69
2023/11/20 11:53:37;;;;;;;15.80;10.20;;;;;;;9.36;100.00;98423.21;436352;1253;145117;-64
2023/11/20 12:03:44;;;;;;;9.60;8.00;;;;;;;9.34;100.00;98425.15;436256;1249;139363;-67
2023/11/20 12:14:07;;;;;;;13.20;10.50;;;;;;;9.17;100.00;98422.42;436271;1252;139453;-68
2023/11/20 12:24:14;;;;;;;15.80;12.20;;;;;;;9.00;100.00;98416.03;439128;1249;139740;-67
2023/11/20 12:34:21;;;;;;;13.20;11.80;;;;;;;8.89;100.00;98409.52;437305;1249;139515;-68
2023/11/20 12:44:28;;;;;;;13.30;11.60;;;;;;;8.82;100.00;98405.64;439259;1250;139556;-71
2023/11/20 12:54:34;;;;;;;9.60;8.30;;;;;;;8.91;100.00;98406.02;436473;1250;140822;-73
2023/11/20 13:04:40;;;;;;;11.00;9.90;;;;;;;8.93;100.00;98400.30;439773;1251;139174;-69
2023/11/20 13:15:01;;;;;;;12.50;9.50;;;;;;;8.96;100.00;98397.60;440126;1254;139158;-69
2023/11/20 13:25:09;;;;;;;9.30;8.30;;;;;;;8.94;100.00;98396.00;437421;1253;139085;-66
2023/11/20 13:35:15;;;;;;;12.20;9.30;;;;;;;8.81;100.00;98398.27;435946;1249;139746;-76
2023/11/20 13:45:22;;;;;;;10.50;9.30;;;;;;;8.61;100.00;98407.77;436976;1249;139191;-65
2023/11/20 13:55:28;;;;;;;12.30;10.80;;;;;;;8.50;100.00;98405.41;436694;1250;140853;-70
2023/11/20 14:05:35;;;;;;;16.40;11.10;;;;;;;8.35;100.00;98401.09;435919;1253;139708;-70
2023/11/20 14:15:41;;;;;;;19.70;14.90;;;;;;;8.21;100.00;98409.23;435986;1250;139523;-70
2023/11/20 14:25:48;;;;;;;17.40;13.20;;;;;;;8.08;100.00;98416.98;435922;1251;143590;-67
2023/11/20 14:36:14;;;;;;;17.10;14.90;;;;;;;7.96;100.00;98419.75;436574;1253;140085;-68
2023/11/20 14:46:21;;;;;;;26.20;21.30;;;;;;;7.85;100.00;98414.31;435454;1254;139088;-74
2023/11/20 14:56:27;;;;;;;26.60;20.70;;;;;;;7.66;100.00;98412.83;437781;1253;138942;-67
2023/11/20 15:06:33;;;;;;;30.00;24.30;;;;;;;7.50;100.00;98423.01;437326;1253;139379;-63
2023/11/20 15:16:40;;;;;;;38.10;25.70;;;;;;;7.40;100.00;98429.58;436054;1254;140063;-67
2023/11/20 15:26:48;;;;;;;38.60;30.00;;;;;;;7.28;100.00;98431.13;435675;1253;139670;-65
2023/11/20 15:36:54;;;;;;;33.40;29.00;;;;;;;7.20;100.00;98438.08;440267;1249;140829;-67
2023/11/20 15:47:00;;;;;;;40.50;30.80;;;;;;;7.14;100.00;98440.05;436296;1253;139579;-69
2023/11/20 15:57:09;;;;;;;39.40;31.70;;;;;;;7.09;100.00;98442.48;437933;1252;139824;-68
2023/11/20 16:07:15;;;;;;;42.00;37.00;;;;;;;7.06;100.00;98443.90;436071;1253;139494;-68
2023/11/20 16:17:22;;;;;;;48.80;37.80;;;;;;;7.03;100.00;98447.23;436233;1253;139402;-66
2023/11/20 16:27:28;;;;;;;50.00;39.40;;;;;;;6.98;100.00;98451.01;435847;1253;139083;-67
2023/11/20 16:37:34;;;;;;;52.10;43.60;;;;;;;6.92;100.00;98446.58;435932;1253;140232;-67
2023/11/20 16:47:42;;;;;;;58.60;48.60;;;;;;;6.86;100.00;98456.55;436079;1253;140687;-67
2023/11/20 16:57:48;;;;;;;56.30;45.30;;;;;;;6.77;100.00;98453.98;436984;1253;139489;-67
2023/11/20 17:07:54;;;;;;;58.70;49.20;;;;;;;6.71;100.00;98457.87;435655;1250;139290;-68
2023/11/20 17:18:00;;;;;;;57.30;45.60;;;;;;;6.72;100.00;98460.60;435659;1250;139698;-67
2023/11/20 17:28:07;;;;;;;51.30;44.40;;;;;;;6.71;100.00;98454.55;435714;1253;139225;-69
2023/11/20 17:38:13;;;;;;;47.60;38.30;;;;;;;6.71;100.00;98452.27;436420;1250;140602;-66
2023/11/20 17:48:23;;;;;;;41.60;36.70;;;;;;;6.69;100.00;98455.36;435785;1253;139444;-67
2023/11/20 17:58:29;;;;;;;41.90;32.70;;;;;;;6.69;100.00;98454.67;435611;1254;139484;-69
2023/11/20 18:08:35;;;;;;;44.40;36.00;;;;;;;6.68;100.00;98454.05;436032;1254;139591;-66
2023/11/20 18:18:42;;;;;;;47.30;36.00;;;;;;;6.68;100.00;98458.92;437694;1254;139499;-75
2023/11/20 18:28:49;;;;;;;69.50;45.30;;;;;;;6.74;100.00;98463.27;439784;1253;139029;-68
2023/11/20 18:38:55;;;;;;;47.20;38.10;;;;;;;6.81;100.00;98465.90;437452;1253;193342;-70
2023/11/20 18:49:02;;;;;;;46.80;35.30;;;;;;;6.86;100.00;98468.52;437327;1254;139388;-66
2023/11/20 18:59:09;;;;;;;51.20;40.80;;;;;;;6.83;100.00;98474.80;436325;1254;139580;-73
2023/11/20 19:09:15;;;;;;;108.30;74.40;;;;;;;6.83;100.00;98477.12;436276;1254;139377;-66
2023/11/20 19:19:22;;;;;;;111.80;86.40;;;;;;;6.84;100.00;98483.65;436620;1253;139643;-69
2023/11/20 19:29:28;;;;;;;126.00;100.60;;;;;;;6.84;100.00;98485.20;436984;1250;139270;-62
2023/11/20 19:39:34;;;;;;;110.10;90.10;;;;;;;6.85;100.00;98485.81;435840;1253;139469;-61
2023/11/20 19:49:41;;;;;;;146.20;115.30;;;;;;;6.85;100.00;98492.98;437076;1254;139997;-61
2023/11/20 19:59:47;;;;;;;120.40;97.60;;;;;;;6.85;100.00;98496.23;435795;1255;140679;-60
2023/11/20 20:09:54;;;;;;;136.50;105.90;;;;;;;6.88;100.00;98498.71;435920;1254;139180;-61
2023/11/20 20:20:01;;;;;;;110.80;94.60;;;;;;;6.87;100.00;98495.98;436283;1254;139828;-62
2023/11/20 20:30:07;;;;;;;;;;;;;;;6.83;100.00;98494.63;435771;1248;142849;-60
2023/11/20 20:40:15;;;;;;;77.00;60.30;;;;;;;6.80;100.00;98499.36;436183;1254;125951;-61
2023/11/20 20:50:22;;;;;;;77.10;57.60;;;;;;;6.76;100.00;98508.52;436665;1253;139101;-60
2023/11/20 21:00:31;;;;;;;75.50;59.50;;;;;;;6.71;100.00;98512.27;436679;1253;139885;-60
2023/11/20 21:10:37;;;;;;;98.70;74.00;;;;;;;6.69;100.00;98517.50;436206;1251;140676;-62
2023/11/20 21:20:44;;;;;;;86.60;66.90;;;;;;;6.65;100.00;98521.90;436375;1253;140076;-62
2023/11/20 21:30:50;;;;;;;94.60;68.10;;;;;;;6.62;100.00;98527.30;435664;1253;139514;-61
2023/11/20 21:40:56;;;;;;;92.30;67.90;;;;;;;6.65;100.00;98540.86;435840;1253;139660;-62
2023/11/20 21:51:03;;;;;;;54.80;36.50;;;;;;;6.69;100.00;98537.67;436225;1253;139431;-60
2023/11/20 22:01:10;;;;;;;55.70;35.80;;;;;;;6.54;100.00;98542.11;436337;1253;139340;-60
2023/11/20 22:11:17;;;;;;;51.50;31.90;;;;;;;6.20;100.00;98531.21;436469;1254;139997;-60
2023/11/20 22:21:23;;;;;;;45.30;29.40;;;;;;;5.93;100.00;98529.16;436434;1254;139288;-61
2023/11/20 22:31:30;;;;;;;48.70;26.40;;;;;;;5.78;100.00;98543.12;436316;1253;139615;-61
2023/11/20 22:41:36;;;;;;;45.60;31.10;;;;;;;5.56;100.00;98556.07;436142;1253;139372;-62
2023/11/20 22:51:43;;;;;;;45.90;28.30;;;;;;;5.41;100.00;98561.95;435849;1254;139842;-61
2023/11/20 23:01:50;;;;;;;40.50;27.40;;;;;;;5.35;100.00;98556.39;436476;1255;140137;-61
2023/11/20 23:11:56;;;;;;;48.40;26.40;;;;;;;5.28;100.00;98565.86;436266;1255;140368;-61
2023/11/20 23:22:03;;;;;;;45.80;27.40;;;;;;;5.17;100.00;98567.56;435721;1257;139522;-60
2023/11/20 23:32:10;;;;;;;45.70;26.40;;;;;;;5.01;100.00;98562.18;435494;1251;139260;-60
2023/11/20 23:42:17;;;;;;;41.00;25.10;;;;;;;4.84;100.00;98567.33;435737;1253;139063;-61
2023/11/20 23:52:23;;;;;;;39.30;23.00;;;;;;;4.67;100.00;98568.81;435524;1251;168326;-61
